createdAt,value
2022-12-29T00:00:45.531Z,14.00
2022-12-29T00:03:43.352Z,15.40
2022-12-29T00:06:41.272Z,16.00
2022-12-29T00:09:38.698Z,10.60
2022-12-29T00:12:50.215Z,11.40
2022-12-29T00:15:47.938Z,10.60
2022-12-29T00:18:45.392Z,11.50
2022-12-29T00:22:01.025Z,11.30
2022-12-29T00:25:16.468Z,13.90
2022-12-29T00:28:38.734Z,9.60
2022-12-29T00:31:54.145Z,13.40
2022-12-29T00:35:09.334Z,12.50
2022-12-29T00:38:24.985Z,10.60
2022-12-29T00:41:39.474Z,14.50
2022-12-29T00:44:36.920Z,10.00
2022-12-29T00:47:34.523Z,11.70
2022-12-29T00:50:31.954Z,12.90
2022-12-29T00:53:29.664Z,18.90
2022-12-29T00:56:27.116Z,12.50
2022-12-29T00:59:25.451Z,14.50
2022-12-29T01:02:23.298Z,13.70
2022-12-29T01:05:20.882Z,14.30
2022-12-29T01:08:18.526Z,13.90
2022-12-29T01:11:15.969Z,11.50
2022-12-29T01:14:15.501Z,15.10
2022-12-29T01:17:12.907Z,12.50
2022-12-29T01:20:10.375Z,14.20
2022-12-29T01:23:08.088Z,14.30
2022-12-29T01:26:05.525Z,12.90
2022-12-29T01:29:03.314Z,14.00
2022-12-29T01:32:00.823Z,13.40
2022-12-29T01:34:58.589Z,14.80
2022-12-29T01:37:56.085Z,13.20
2022-12-29T01:40:53.896Z,13.30
2022-12-29T01:43:51.868Z,13.90
2022-12-29T01:46:49.310Z,13.50
2022-12-29T01:49:46.846Z,12.30
2022-12-29T01:52:44.349Z,14.00
2022-12-29T01:55:42.088Z,14.10
2022-12-29T01:58:39.768Z,10.70
2022-12-29T02:01:37.331Z,13.30
2022-12-29T02:04:35.636Z,10.50
2022-12-29T02:07:33.068Z,11.60
2022-12-29T02:10:30.836Z,9.80
2022-12-29T02:13:28.295Z,11.50
2022-12-29T02:16:26.219Z,13.60
2022-12-29T02:19:23.840Z,12.40
2022-12-29T02:22:21.497Z,12.10
2022-12-29T02:25:19.159Z,10.50
2022-12-29T02:28:16.601Z,11.50
2022-12-29T02:31:16.044Z,11.50
2022-12-29T02:34:13.587Z,11.10
2022-12-29T02:37:11.235Z,10.70
2022-12-29T02:40:08.716Z,12.70
2022-12-29T02:43:06.605Z,12.80
2022-12-29T02:46:05.091Z,9.60
2022-12-29T02:49:02.861Z,11.60
2022-12-29T02:52:00.403Z,9.80
2022-12-29T02:54:58.775Z,14.20
2022-12-29T02:57:56.533Z,10.20
2022-12-29T03:00:54.354Z,10.80
2022-12-29T03:03:52.078Z,9.50
2022-12-29T03:06:53.242Z,11.40
2022-12-29T03:09:51.300Z,11.00
2022-12-29T03:13:06.375Z,10.00
2022-12-29T03:16:05.687Z,10.60
2022-12-29T03:19:03.638Z,11.50
2022-12-29T03:22:17.825Z,9.50
2022-12-29T03:25:15.567Z,11.30
2022-12-29T03:28:13.131Z,9.10
2022-12-29T03:31:10.844Z,10.30
2022-12-29T03:34:08.354Z,6.80
2022-12-29T03:37:06.227Z,11.10
2022-12-29T03:40:04.916Z,12.40
2022-12-29T03:43:02.831Z,11.40
2022-12-29T03:46:00.577Z,12.20
2022-12-29T03:48:58.519Z,11.70
2022-12-29T03:51:56.390Z,11.30
2022-12-29T03:54:53.854Z,9.90
2022-12-29T03:57:51.939Z,9.00
2022-12-29T04:00:49.393Z,8.60
2022-12-29T04:03:47.225Z,9.40
2022-12-29T04:06:44.939Z,9.90
2022-12-29T04:09:42.381Z,9.30
2022-12-29T04:12:39.840Z,13.60
2022-12-29T04:15:37.347Z,14.50
2022-12-29T04:18:35.171Z,8.80
2022-12-29T04:21:32.628Z,8.80
2022-12-29T04:24:30.398Z,13.00
2022-12-29T04:27:28.060Z,10.30
2022-12-29T04:30:25.527Z,12.50
2022-12-29T04:33:23.183Z,13.00
2022-12-29T04:36:22.432Z,14.00
2022-12-29T04:39:25.684Z,11.70
2022-12-29T04:42:23.391Z,12.90
2022-12-29T04:45:21.216Z,10.10
2022-12-29T04:48:18.885Z,11.20
2022-12-29T04:51:16.312Z,11.10
2022-12-29T04:54:14.017Z,8.70
2022-12-29T04:57:12.180Z,10.60
2022-12-29T05:00:11.084Z,11.80
2022-12-29T05:03:09.237Z,10.10
2022-12-29T05:06:07.120Z,15.30
2022-12-29T05:09:05.199Z,11.70
2022-12-29T05:12:02.658Z,11.50
2022-12-29T05:15:00.431Z,8.70
2022-12-29T05:17:57.858Z,13.70
2022-12-29T05:20:55.652Z,11.90
2022-12-29T05:23:53.431Z,11.90
2022-12-29T05:26:50.861Z,11.90
2022-12-29T05:29:48.690Z,12.00
2022-12-29T05:32:46.144Z,9.60
2022-12-29T05:35:43.980Z,11.90
2022-12-29T05:38:41.441Z,10.40
2022-12-29T05:41:39.206Z,12.20
2022-12-29T05:44:37.075Z,13.10
2022-12-29T05:47:34.535Z,12.00
2022-12-29T05:50:32.299Z,12.90
2022-12-29T05:53:29.778Z,13.50
2022-12-29T05:56:27.630Z,12.20
2022-12-29T05:59:25.089Z,11.00
2022-12-29T06:02:23.152Z,10.30
2022-12-29T06:05:21.243Z,10.90
2022-12-29T06:08:18.676Z,9.30
2022-12-29T06:11:16.471Z,10.80
2022-12-29T06:14:14.540Z,9.90
2022-12-29T06:17:12.308Z,9.00
2022-12-29T06:20:09.699Z,11.10
2022-12-29T06:23:07.534Z,12.60
2022-12-29T06:26:05.303Z,11.00
2022-12-29T06:29:03.901Z,12.10
2022-12-29T06:32:01.676Z,12.60
2022-12-29T06:34:59.217Z,13.60
2022-12-29T06:37:56.992Z,12.40
2022-12-29T06:40:54.443Z,13.10
2022-12-29T06:43:51.914Z,9.60
2022-12-29T06:46:49.672Z,10.00
2022-12-29T06:49:47.754Z,13.80
2022-12-29T06:52:45.617Z,11.40
2022-12-29T06:55:43.051Z,9.50
2022-12-29T06:58:40.945Z,9.50
2022-12-29T07:01:38.922Z,9.10
2022-12-29T07:04:36.472Z,12.50
2022-12-29T07:07:34.403Z,10.10
2022-12-29T07:10:31.846Z,12.00
2022-12-29T07:13:30.297Z,14.00
2022-12-29T07:16:27.958Z,12.10
2022-12-29T07:19:25.521Z,12.70
2022-12-29T07:22:23.286Z,9.90
2022-12-29T07:25:20.747Z,9.90
2022-12-29T07:28:18.616Z,14.30
2022-12-29T07:31:16.083Z,12.20
2022-12-29T07:34:13.538Z,12.30
2022-12-29T07:37:11.320Z,13.00
2022-12-29T07:40:08.874Z,11.50
2022-12-29T07:43:06.544Z,15.70
2022-12-29T07:46:04.051Z,25.30
2022-12-29T07:49:01.860Z,15.90
2022-12-29T07:51:59.566Z,21.30
2022-12-29T07:54:57.042Z,22.50
2022-12-29T07:57:54.501Z,17.30
2022-12-29T08:00:51.930Z,22.20
2022-12-29T08:03:55.414Z,18.30
2022-12-29T08:06:54.627Z,21.00
2022-12-29T08:09:52.382Z,21.50
2022-12-29T08:12:50.129Z,23.80
2022-12-29T08:15:47.621Z,27.10
2022-12-29T08:18:45.784Z,25.90
2022-12-29T08:21:43.199Z,26.10
2022-12-29T08:24:40.994Z,19.30
2022-12-29T08:27:38.632Z,20.40
2022-12-29T08:30:36.058Z,18.20
2022-12-29T08:33:33.679Z,19.70
2022-12-29T08:36:31.503Z,15.50
2022-12-29T08:39:29.964Z,20.20
2022-12-29T08:42:32.202Z,17.10
2022-12-29T08:45:29.760Z,14.70
2022-12-29T08:48:27.445Z,12.70
2022-12-29T08:51:25.354Z,13.80
2022-12-29T08:54:23.182Z,14.20
2022-12-29T08:57:21.340Z,14.70
2022-12-29T09:00:19.009Z,13.70
2022-12-29T09:03:25.869Z,18.90
2022-12-29T09:06:39.997Z,14.20
2022-12-29T09:09:38.347Z,18.60
2022-12-29T09:12:36.716Z,18.10
2022-12-29T09:15:34.681Z,15.20
2022-12-29T09:18:32.340Z,16.30
2022-12-29T09:21:29.786Z,17.40
2022-12-29T09:24:27.365Z,18.10
2022-12-29T09:27:24.844Z,18.30
2022-12-29T09:30:22.493Z,20.60
2022-12-29T09:33:19.931Z,17.70
2022-12-29T09:36:17.646Z,19.80
2022-12-29T09:39:15.070Z,14.80
2022-12-29T09:42:12.758Z,15.60
2022-12-29T09:45:10.199Z,15.10
2022-12-29T09:48:09.884Z,14.30
2022-12-29T09:51:07.771Z,14.50
2022-12-29T09:54:05.245Z,16.60
2022-12-29T09:57:03.012Z,16.60
2022-12-29T10:00:00.425Z,19.10
2022-12-29T10:02:58.135Z,15.90
2022-12-29T10:05:55.725Z,13.50
2022-12-29T10:08:53.329Z,19.40
2022-12-29T10:11:51.134Z,22.90
2022-12-29T10:14:48.565Z,26.70
2022-12-29T10:17:46.640Z,26.30
2022-12-29T10:20:44.064Z,24.40
2022-12-29T10:23:42.882Z,21.60
2022-12-29T10:26:40.293Z,19.20
2022-12-29T10:29:38.048Z,20.10
2022-12-29T10:32:35.736Z,21.60
2022-12-29T10:35:33.195Z,19.60
2022-12-29T10:38:30.811Z,20.20
2022-12-29T10:41:28.328Z,14.60
2022-12-29T10:44:26.076Z,17.00
2022-12-29T10:47:23.525Z,19.70
2022-12-29T10:50:21.284Z,18.60
2022-12-29T10:53:18.933Z,23.10
2022-12-29T10:56:16.369Z,23.00
2022-12-29T10:59:14.488Z,22.10
2022-12-29T11:02:12.010Z,22.10
2022-12-29T11:05:10.552Z,20.80
2022-12-29T11:08:07.987Z,21.60
2022-12-29T11:11:05.828Z,19.20
2022-12-29T11:14:03.267Z,19.00
2022-12-29T11:17:01.319Z,24.80
2022-12-29T11:19:58.769Z,23.60
2022-12-29T11:22:56.614Z,22.80
2022-12-29T11:25:54.039Z,19.40
2022-12-29T11:28:51.825Z,18.20
2022-12-29T11:31:49.303Z,19.20
2022-12-29T11:34:47.188Z,18.60
2022-12-29T11:37:44.645Z,13.60
2022-12-29T11:40:42.506Z,21.50
2022-12-29T11:43:39.949Z,23.30
2022-12-29T11:46:37.885Z,17.10
2022-12-29T11:49:35.382Z,29.10
2022-12-29T11:52:34.773Z,23.30
2022-12-29T11:55:32.214Z,21.80
2022-12-29T11:58:30.071Z,25.50
2022-12-29T12:01:27.616Z,22.60
2022-12-29T12:04:25.494Z,24.50
2022-12-29T12:07:22.988Z,18.00
2022-12-29T12:10:20.928Z,22.70
2022-12-29T12:13:18.869Z,25.90
2022-12-29T12:16:16.766Z,19.20
2022-12-29T12:19:14.722Z,24.40
2022-12-29T12:22:12.140Z,22.50
2022-12-29T12:25:10.077Z,18.50
2022-12-29T12:28:08.038Z,25.00
2022-12-29T12:31:07.170Z,24.60
2022-12-29T12:34:04.669Z,21.30
2022-12-29T12:37:02.447Z,20.70
2022-12-29T12:39:59.877Z,20.20
2022-12-29T12:42:57.822Z,28.30
2022-12-29T12:45:55.326Z,28.30
2022-12-29T12:48:53.187Z,24.00
2022-12-29T12:51:50.661Z,24.10
2022-12-29T12:54:48.474Z,22.40
2022-12-29T12:57:46.414Z,29.50
2022-12-29T13:00:43.850Z,21.80
2022-12-29T13:03:41.861Z,20.40
2022-12-29T13:06:39.340Z,17.10
2022-12-29T13:09:37.198Z,20.80
2022-12-29T13:12:34.623Z,24.70
2022-12-29T13:15:32.609Z,22.70
2022-12-29T13:18:30.254Z,26.00
2022-12-29T13:21:28.106Z,27.80
2022-12-29T13:24:25.581Z,21.50
2022-12-29T13:27:23.464Z,27.60
2022-12-29T13:30:20.921Z,26.10
2022-12-29T13:33:21.631Z,30.80
2022-12-29T13:36:19.821Z,28.90
2022-12-29T13:39:20.872Z,23.10
2022-12-29T13:42:19.220Z,24.30
2022-12-29T13:45:16.648Z,20.80
2022-12-29T13:48:14.376Z,24.90
2022-12-29T13:51:12.560Z,21.70
2022-12-29T13:54:10.065Z,22.80
2022-12-29T13:57:08.811Z,22.10
2022-12-29T14:00:06.355Z,19.10
2022-12-29T14:03:04.382Z,25.30
2022-12-29T14:06:01.998Z,25.30
2022-12-29T14:08:59.927Z,25.90
2022-12-29T14:11:57.345Z,26.20
2022-12-29T14:14:55.195Z,23.20
2022-12-29T14:17:53.069Z,12.40
2022-12-29T14:20:50.522Z,21.90
2022-12-29T14:23:48.303Z,23.70
2022-12-29T14:26:45.754Z,17.70
2022-12-29T14:29:43.633Z,21.40
2022-12-29T14:32:41.140Z,21.30
2022-12-29T14:35:39.184Z,22.20
2022-12-29T14:38:36.647Z,22.30
2022-12-29T14:41:34.435Z,23.30
2022-12-29T14:44:31.886Z,22.40
2022-12-29T14:47:29.716Z,19.70
2022-12-29T14:50:27.156Z,26.10
2022-12-29T14:53:24.604Z,24.50
2022-12-29T14:56:22.381Z,24.60
2022-12-29T14:59:20.291Z,22.30
2022-12-29T15:02:17.801Z,21.50
2022-12-29T15:05:15.918Z,21.00
2022-12-29T15:08:13.375Z,23.90
2022-12-29T15:11:11.334Z,22.20
2022-12-29T15:14:08.761Z,19.80
2022-12-29T15:17:06.670Z,24.60
2022-12-29T15:20:04.146Z,26.00
2022-12-29T15:23:02.107Z,25.00
2022-12-29T15:25:59.548Z,28.00
2022-12-29T15:28:57.567Z,27.80
2022-12-29T15:31:55.008Z,28.20
2022-12-29T15:34:53.213Z,21.30
2022-12-29T15:37:50.679Z,30.50
2022-12-29T15:40:48.704Z,29.00
2022-12-29T15:43:47.403Z,32.00
2022-12-29T15:46:45.496Z,31.10
2022-12-29T15:49:42.921Z,28.90
2022-12-29T15:52:40.817Z,28.80
2022-12-29T15:55:38.297Z,25.10
2022-12-29T15:58:36.061Z,24.20
2022-12-29T16:01:33.665Z,29.30
2022-12-29T16:04:38.982Z,31.90
2022-12-29T16:07:45.762Z,30.50
2022-12-29T16:10:43.633Z,27.10
2022-12-29T16:13:41.040Z,30.10
2022-12-29T16:16:39.012Z,29.60
2022-12-29T16:19:36.500Z,25.50
2022-12-29T16:22:34.244Z,25.70
2022-12-29T16:25:32.545Z,37.80
2022-12-29T16:28:30.481Z,34.60
2022-12-29T16:31:27.980Z,33.20
2022-12-29T16:34:25.815Z,33.80
2022-12-29T16:37:23.272Z,37.40
2022-12-29T16:40:21.270Z,34.80
2022-12-29T16:43:18.678Z,39.40
2022-12-29T16:46:16.520Z,47.10
2022-12-29T16:49:14.020Z,41.70
2022-12-29T16:52:11.913Z,47.80
2022-12-29T16:55:09.336Z,43.10
2022-12-29T16:58:07.349Z,79.40
2022-12-29T17:01:04.847Z,89.10
2022-12-29T17:04:02.721Z,59.20
2022-12-29T17:07:00.664Z,50.20
2022-12-29T17:09:58.512Z,44.40
2022-12-29T17:12:55.930Z,35.10
2022-12-29T17:15:53.904Z,30.10
2022-12-29T17:18:51.359Z,30.00
2022-12-29T17:21:49.232Z,32.70
2022-12-29T17:24:47.263Z,34.60
2022-12-29T17:27:44.770Z,30.70
2022-12-29T17:30:43.809Z,33.80
2022-12-29T17:33:42.879Z,38.60
2022-12-29T17:36:40.816Z,31.70
2022-12-29T17:39:38.248Z,31.90
2022-12-29T17:42:36.277Z,31.50
2022-12-29T17:45:33.732Z,30.80
2022-12-29T17:48:31.537Z,28.80
2022-12-29T17:51:29.520Z,34.10
2022-12-29T17:54:27.008Z,33.40
2022-12-29T17:57:24.790Z,25.80
2022-12-29T18:00:22.462Z,29.10
2022-12-29T18:03:20.530Z,28.70
2022-12-29T18:06:18.539Z,34.80
2022-12-29T18:09:18.745Z,30.30
2022-12-29T18:12:16.170Z,32.20
2022-12-29T18:15:13.715Z,32.50
2022-12-29T18:18:12.071Z,31.30
2022-12-29T18:21:09.933Z,31.50
2022-12-29T18:24:07.521Z,31.80
2022-12-29T18:27:05.758Z,33.50
2022-12-29T18:30:03.529Z,35.20
2022-12-29T18:33:01.472Z,32.50
2022-12-29T18:36:00.188Z,30.70
2022-12-29T18:39:00.589Z,28.20
2022-12-29T18:41:58.154Z,30.10
2022-12-29T18:44:56.081Z,22.40
2022-12-29T18:47:53.751Z,24.10
2022-12-29T18:50:52.548Z,25.00
2022-12-29T18:53:49.986Z,24.50
2022-12-29T18:56:47.877Z,25.80
2022-12-29T18:59:45.744Z,28.60
2022-12-29T19:02:44.335Z,30.40
2022-12-29T19:05:42.185Z,28.80
2022-12-29T19:08:39.669Z,24.70
2022-12-29T19:11:37.808Z,29.60
2022-12-29T19:14:35.278Z,27.60
2022-12-29T19:17:33.362Z,30.70
2022-12-29T19:20:31.128Z,31.80
2022-12-29T19:23:28.984Z,28.60
2022-12-29T19:26:26.529Z,29.10
2022-12-29T19:29:25.604Z,31.00
2022-12-29T19:32:23.106Z,29.70
2022-12-29T19:35:21.542Z,31.80
2022-12-29T19:38:19.014Z,32.60
2022-12-29T19:41:17.052Z,31.10
2022-12-29T19:44:14.507Z,31.40
2022-12-29T19:47:14.721Z,33.60
2022-12-29T19:50:12.225Z,35.20
2022-12-29T19:53:10.060Z,35.60
2022-12-29T19:56:07.958Z,32.00
2022-12-29T19:59:05.958Z,31.50
2022-12-29T20:02:05.809Z,34.30
2022-12-29T20:05:03.891Z,33.20
2022-12-29T20:08:02.309Z,34.80
2022-12-29T20:11:00.341Z,30.60
2022-12-29T20:13:57.794Z,44.80
2022-12-29T20:17:10.885Z,43.60
2022-12-29T20:20:09.308Z,37.70
2022-12-29T20:23:07.615Z,33.50
2022-12-29T20:26:05.699Z,31.90
2022-12-29T20:29:03.566Z,31.60
2022-12-29T20:32:01.149Z,28.40
2022-12-29T20:34:58.615Z,21.30
2022-12-29T20:37:57.060Z,23.80
2022-12-29T20:40:54.521Z,23.30
2022-12-29T20:43:53.813Z,26.60
2022-12-29T20:46:51.737Z,24.30
2022-12-29T20:49:49.434Z,25.70
2022-12-29T20:52:48.001Z,23.80
2022-12-29T20:55:45.927Z,24.60
2022-12-29T20:59:17.190Z,21.20
2022-12-29T21:02:01.385Z,23.60
2022-12-29T21:05:23.382Z,24.40
2022-12-29T21:08:17.035Z,28.20
2022-12-29T21:11:14.904Z,31.00
2022-12-29T21:14:12.869Z,23.20
2022-12-29T21:17:10.399Z,23.70
2022-12-29T21:20:08.264Z,25.90
2022-12-29T21:23:06.325Z,23.50
2022-12-29T21:26:04.500Z,22.00
2022-12-29T21:29:02.001Z,17.60
2022-12-29T21:32:06.708Z,18.50
2022-12-29T21:35:04.882Z,17.50
2022-12-29T21:38:02.346Z,20.10
2022-12-29T21:41:00.561Z,19.70
2022-12-29T21:44:27.327Z,19.40
2022-12-29T21:47:25.347Z,21.50
2022-12-29T21:50:22.831Z,18.20
2022-12-29T21:53:20.685Z,20.20
2022-12-29T21:56:18.562Z,24.80
2022-12-29T21:59:33.835Z,20.50
2022-12-29T22:02:49.840Z,23.40
2022-12-29T22:06:05.528Z,24.90
2022-12-29T22:09:20.542Z,25.50
2022-12-29T22:12:36.584Z,28.60
2022-12-29T22:15:34.109Z,30.80
2022-12-29T22:18:32.340Z,29.00
2022-12-29T22:21:29.772Z,32.20
2022-12-29T22:24:27.665Z,27.30
2022-12-29T22:27:25.104Z,25.70
2022-12-29T22:30:22.972Z,31.00
2022-12-29T22:33:20.435Z,26.80
2022-12-29T22:36:18.288Z,25.70
2022-12-29T22:39:16.896Z,25.80
2022-12-29T22:42:14.338Z,36.10
2022-12-29T22:45:12.236Z,33.00
2022-12-29T22:48:10.298Z,36.60
2022-12-29T22:51:07.736Z,30.00
2022-12-29T22:54:05.616Z,33.60
2022-12-29T22:57:03.083Z,35.90
2022-12-29T23:00:00.859Z,33.80
2022-12-29T23:02:59.068Z,31.20
2022-12-29T23:05:57.339Z,30.50
2022-12-29T23:08:55.896Z,29.30
2022-12-29T23:11:53.459Z,29.30
2022-12-29T23:14:51.265Z,26.60
2022-12-29T23:17:48.683Z,30.90
2022-12-29T23:20:46.500Z,29.40
2022-12-29T23:23:56.243Z,26.80
2022-12-29T23:26:54.126Z,24.50
2022-12-29T23:29:51.597Z,24.70
2022-12-29T23:32:49.417Z,27.90
2022-12-29T23:35:46.842Z,29.60
2022-12-29T23:38:44.771Z,29.40
2022-12-29T23:41:42.257Z,31.60
2022-12-29T23:44:40.158Z,36.40
2022-12-29T23:47:37.594Z,33.90
2022-12-29T23:50:35.057Z,32.20
2022-12-29T23:53:32.514Z,32.10
2022-12-29T23:56:30.457Z,41.70
2022-12-29T23:59:27.910Z,45.10
